Time;durP1;ratioP1;P1;durP2;ratioP2;P2;SDS_P1;SDS_P2;PMS_P1;PMS_P2;Temp;Humidity;BMP_temperature;BMP_pressure;BME280_temperature;BME280_humidity;BME280_pressure;Samples;Min_cycle;Max_cycle;Signal;HPM_P1;HPM_P2
2022/10/15 00:02:11;;;;;;;108.68;32.60;;;11.20;99.90;;;;;;5137057;27;20432;-76
2022/10/15 00:04:37;;;;;;;120.28;32.35;;;11.20;99.90;;;;;;5120247;27;20035;-77
2022/10/15 00:07:02;;;;;;;91.30;31.13;;;11.20;99.90;;;;;;5136981;27;20130;-76
2022/10/15 00:09:28;;;;;;;92.90;31.58;;;11.20;99.90;;;;;;5155406;27;20122;-75
2022/10/15 00:11:54;;;;;;;91.95;31.20;;;11.10;99.90;;;;;;5154846;27;20047;-80
2022/10/15 00:14:20;;;;;;;94.50;30.50;;;11.10;99.90;;;;;;5104209;27;20050;-75
2022/10/15 00:16:49;;;;;;;104.75;31.55;;;11.10;99.90;;;;;;5137923;27;20419;-75
2022/10/15 00:19:14;;;;;;;98.72;31.63;;;11.00;99.90;;;;;;5137058;27;20096;-75
2022/10/15 00:21:40;;;;;;;90.57;31.90;;;11.00;99.90;;;;;;5136847;27;20475;-74
2022/10/15 00:24:07;;;;;;;107.18;31.60;;;11.00;99.90;;;;;;5119993;27;20073;-75
2022/10/15 00:26:32;;;;;;;99.75;31.10;;;11.00;99.90;;;;;;5137366;27;20486;-74
2022/10/15 00:29:02;;;;;;;100.82;30.90;;;11.00;99.90;;;;;;5136860;27;20123;-77
2022/10/15 00:31:29;;;;;;;110.78;31.25;;;11.00;99.90;;;;;;5136993;27;20047;-74
2022/10/15 00:33:57;;;;;;;158.73;33.50;;;11.00;99.90;;;;;;5137245;27;20150;-76
2022/10/15 00:36:26;;;;;;;153.93;33.42;;;11.00;99.90;;;;;;5136184;27;20222;-75
2022/10/15 00:38:52;;;;;;;141.40;32.70;;;10.90;99.90;;;;;;5136324;27;20430;-76
2022/10/15 00:41:30;;;;;;;111.38;31.60;;;10.90;99.90;;;;;;5155147;27;20099;-75
2022/10/15 00:43:58;;;;;;;110.63;31.63;;;10.90;99.90;;;;;;5136495;27;20039;-76
2022/10/15 00:46:30;;;;;;;208.35;36.03;;;11.00;99.90;;;;;;5155503;27;20106;-76
2022/10/15 00:49:12;;;;;;;247.05;35.95;;;11.00;99.90;;;;;;5137558;27;20046;-83
2022/10/15 00:51:46;;;;;;;299.27;34.03;;;11.00;99.90;;;;;;5136398;27;20550;-75
2022/10/15 00:54:13;;;;;;;511.73;40.50;;;11.00;99.90;;;;;;5154993;27;20086;-76
2022/10/15 00:56:41;;;;;;;276.90;33.55;;;11.00;99.90;;;;;;5154799;27;20039;-75
2022/10/15 00:59:08;;;;;;;154.07;32.10;;;11.00;99.90;;;;;;5155293;27;20041;-76
2022/10/15 01:01:34;;;;;;;204.27;31.08;;;11.00;99.90;;;;;;5136662;27;20063;-77
2022/10/15 01:04:01;;;;;;;245.45;34.10;;;11.00;99.90;;;;;;5155362;27;20035;-81
2022/10/15 01:06:27;;;;;;;120.60;29.83;;;11.00;99.90;;;;;;5137346;27;20133;-75
2022/10/15 01:08:53;;;;;;;103.25;29.13;;;11.00;99.90;;;;;;5155884;27;20043;-74
2022/10/15 01:11:28;;;;;;;94.60;29.52;;;11.00;99.90;;;;;;5155553;27;20462;-74
2022/10/15 01:14:09;;;;;;;110.90;31.08;;;11.00;99.90;;;;;;5136998;27;20043;-77
2022/10/15 01:16:41;;;;;;;103.60;29.38;;;11.00;99.90;;;;;;5137128;27;20058;-74
2022/10/15 01:19:22;;;;;;;95.85;29.55;;;11.00;99.90;;;;;;5154480;27;20057;-75
2022/10/15 01:22:00;;;;;;;91.28;29.13;;;11.00;99.90;;;;;;5119141;27;20135;-75
2022/10/15 01:24:53;;;;;;;98.05;29.95;;;11.00;99.90;;;;;;5120044;27;20055;-75
2022/10/15 01:27:33;;;;;;;96.82;29.25;;;11.00;99.90;;;;;;5154881;27;20042;-76
2022/10/15 01:30:25;;;;;;;99.05;28.63;;;11.00;99.90;;;;;;5155789;27;20038;-76
2022/10/15 01:33:15;;;;;;;96.45;28.70;;;11.10;99.90;;;;;;5154350;27;20039;-74
2022/10/15 01:35:50;;;;;;;87.80;28.08;;;11.10;99.90;;;;;;5154124;27;20034;-75
2022/10/15 01:38:38;;;;;;;99.40;30.20;;;11.20;99.90;;;;;;5118609;27;20074;-74
2022/10/15 01:41:14;;;;;;;102.75;29.70;;;11.20;99.90;;;;;;5135817;27;20051;-82
2022/10/15 01:44:03;;;;;;;89.25;28.27;;;11.20;99.90;;;;;;5136330;27;20093;-79
2022/10/15 01:46:45;;;;;;;95.60;28.05;;;11.10;99.90;;;;;;5154244;27;20135;-75
2022/10/15 01:49:14;;;;;;;96.72;28.30;;;11.20;99.90;;;;;;5156359;27;20045;-77
2022/10/15 01:51:42;;;;;;;96.65;28.27;;;11.20;99.90;;;;;;5157698;27;20129;-75
2022/10/15 01:54:13;;;;;;;92.20;26.98;;;11.20;99.90;;;;;;5157782;27;20049;-76
2022/10/15 01:56:40;;;;;;;92.57;29.83;;;11.20;99.90;;;;;;5139351;27;20474;-76
2022/10/15 01:59:08;;;;;;;89.40;27.47;;;11.20;99.90;;;;;;5139223;27;20110;-84
2022/10/15 02:01:33;;;;;;;91.38;29.08;;;11.20;99.90;;;;;;5139885;27;20406;-75
2022/10/15 02:03:59;;;;;;;107.40;29.25;;;11.20;99.90;;;;;;5157628;27;20134;-75
2022/10/15 02:06:38;;;;;;;94.40;27.85;;;11.20;99.90;;;;;;5139777;27;20058;-75
2022/10/15 02:09:17;;;;;;;86.85;28.02;;;11.20;99.90;;;;;;5157708;27;20043;-76
2022/10/15 02:11:59;;;;;;;89.57;27.52;;;11.20;99.90;;;;;;5122318;27;20083;-77
2022/10/15 02:14:43;;;;;;;103.30;28.88;;;11.30;99.90;;;;;;5139214;27;20133;-75
2022/10/15 02:17:10;;;;;;;104.18;28.80;;;11.30;99.90;;;;;;5157153;27;20094;-85
2022/10/15 02:19:39;;;;;;;91.40;27.67;;;11.30;99.90;;;;;;5157559;27;20047;-76
2022/10/15 02:22:34;;;;;;;96.28;28.70;;;11.20;99.90;;;;;;5157576;27;20439;-75
2022/10/15 02:25:14;;;;;;;91.32;28.63;;;11.20;99.90;;;;;;5143177;27;20406;-74
2022/10/15 02:27:43;;;;;;;95.15;28.90;;;11.20;99.90;;;;;;5157210;27;20121;-77
2022/10/15 02:30:09;;;;;;;88.50;28.55;;;11.30;99.90;;;;;;5139596;27;20352;-78
2022/10/15 02:32:39;;;;;;;86.00;27.77;;;11.30;99.90;;;;;;5157207;27;20069;-78
2022/10/15 02:35:07;;;;;;;88.75;28.30;;;11.40;99.90;;;;;;5157791;27;20047;-78
2022/10/15 02:37:34;;;;;;;98.32;28.35;;;11.30;99.90;;;;;;5138855;27;20055;-78
2022/10/15 02:40:00;;;;;;;85.57;27.13;;;11.30;99.90;;;;;;5157712;27;20087;-76
2022/10/15 02:42:26;;;;;;;81.72;26.92;;;11.30;99.90;;;;;;5105074;27;20442;-79
2022/10/15 02:44:52;;;;;;;86.70;26.35;;;11.30;99.90;;;;;;5138767;27;20046;-77
2022/10/15 02:47:18;;;;;;;85.45;28.15;;;11.30;99.90;;;;;;5157396;27;20043;-77
2022/10/15 02:49:44;;;;;;;88.07;27.33;;;11.30;99.90;;;;;;5139356;27;20156;-77
2022/10/15 02:52:10;;;;;;;88.70;27.52;;;11.30;99.90;;;;;;5157263;27;20039;-75
2022/10/15 02:54:36;;;;;;;82.10;26.20;;;11.30;99.90;;;;;;5138618;27;20062;-76
2022/10/15 02:57:02;;;;;;;79.75;27.33;;;11.30;99.90;;;;;;5138031;27;20125;-77
2022/10/15 02:59:28;;;;;;;88.97;27.88;;;11.30;99.90;;;;;;5137976;27;20046;-78
2022/10/15 03:01:53;;;;;;;86.07;28.02;;;11.40;99.90;;;;;;5138312;27;20039;-77
2022/10/15 03:04:19;;;;;;;83.28;26.73;;;11.30;99.90;;;;;;5138631;27;20045;-75
2022/10/15 03:06:45;;;;;;;81.57;26.50;;;11.30;99.90;;;;;;5157122;27;20488;-76
2022/10/15 03:09:11;;;;;;;78.63;25.33;;;11.40;99.90;;;;;;5137887;27;20121;-77
2022/10/15 03:11:38;;;;;;;81.75;27.20;;;11.40;99.90;;;;;;5156098;27;20069;-77
2022/10/15 03:14:03;;;;;;;78.53;26.63;;;11.40;99.90;;;;;;5137787;27;20078;-76
2022/10/15 03:16:29;;;;;;;82.57;26.88;;;11.40;99.90;;;;;;5156029;27;20105;-80
2022/10/15 03:18:55;;;;;;;81.00;26.25;;;11.40;99.90;;;;;;5156494;27;20503;-76
2022/10/15 03:21:21;;;;;;;76.28;26.33;;;11.40;99.90;;;;;;5137601;27;20039;-76
2022/10/15 03:23:47;;;;;;;78.63;27.20;;;11.40;99.90;;;;;;5156283;27;20043;-76
2022/10/15 03:26:12;;;;;;;83.28;28.10;;;11.40;99.90;;;;;;5120079;27;20125;-76
2022/10/15 03:28:38;;;;;;;77.43;27.13;;;11.30;99.90;;;;;;5156383;27;20050;-76
2022/10/15 03:31:04;;;;;;;80.53;26.33;;;11.30;99.90;;;;;;5120078;27;20191;-76
2022/10/15 03:33:30;;;;;;;79.85;26.95;;;11.30;99.90;;;;;;5103598;27;20145;-77
2022/10/15 03:35:56;;;;;;;80.93;27.33;;;11.30;99.90;;;;;;5137226;27;20042;-76
2022/10/15 03:38:22;;;;;;;74.70;27.70;;;11.30;99.90;;;;;;5120634;27;20047;-77
2022/10/15 03:40:48;;;;;;;83.57;29.40;;;11.30;99.90;;;;;;5156374;27;20360;-78
2022/10/15 03:43:14;;;;;;;78.75;27.73;;;11.30;99.90;;;;;;5155905;27;20080;-76
2022/10/15 03:45:39;;;;;;;73.43;27.27;;;11.30;99.90;;;;;;5120414;27;20350;-78
2022/10/15 03:48:05;;;;;;;76.30;27.25;;;11.20;99.90;;;;;;5155740;27;20082;-76
2022/10/15 03:50:31;;;;;;;82.53;27.80;;;11.20;99.90;;;;;;5137494;27;20133;-77
2022/10/15 03:52:57;;;;;;;78.18;26.50;;;11.30;99.90;;;;;;5137782;27;20479;-76
2022/10/15 03:55:23;;;;;;;85.68;28.27;;;11.20;99.90;;;;;;5155455;27;20097;-79
2022/10/15 03:57:48;;;;;;;77.72;28.45;;;11.20;99.90;;;;;;5155458;27;20043;-77
2022/10/15 04:00:14;;;;;;;79.38;28.95;;;11.20;99.90;;;;;;5120424;27;20049;-77
2022/10/15 04:02:40;;;;;;;80.00;28.17;;;11.10;99.90;;;;;;5136972;27;20508;-78
2022/10/15 04:05:06;;;;;;;83.85;29.10;;;11.00;99.90;;;;;;5120187;27;20085;-77
2022/10/15 04:07:32;;;;;;;91.53;30.20;;;11.00;99.90;;;;;;5155702;27;20043;-77
2022/10/15 04:09:57;;;;;;;77.95;27.13;;;10.90;99.90;;;;;;5103045;27;20451;-76
2022/10/15 04:12:23;;;;;;;85.10;29.27;;;10.90;99.90;;;;;;5136121;27;20520;-83
2022/10/15 04:14:49;;;;;;;91.53;29.15;;;10.90;99.90;;;;;;5155827;27;20043;-77
2022/10/15 04:17:17;;;;;;;94.00;30.55;;;10.80;99.90;;;;;;5098705;27;20478;-80
2022/10/15 04:19:43;;;;;;;87.85;30.02;;;10.70;99.90;;;;;;5134492;27;20102;-76
2022/10/15 04:22:09;;;;;;;83.47;29.73;;;10.70;99.90;;;;;;5116377;27;20506;-77
2022/10/15 04:24:34;;;;;;;90.75;29.88;;;10.70;99.90;;;;;;5116066;27;20047;-75
2022/10/15 04:27:00;;;;;;;87.88;30.27;;;10.70;99.90;;;;;;5133968;27;20036;-77
2022/10/15 04:29:26;;;;;;;93.45;31.25;;;10.70;99.90;;;;;;5134944;27;20334;-83
2022/10/15 04:31:51;;;;;;;89.38;29.50;;;10.70;99.90;;;;;;5116152;27;20049;-78
2022/10/15 04:34:17;;;;;;;96.80;32.00;;;10.70;99.90;;;;;;5133131;27;20390;-77
2022/10/15 04:36:43;;;;;;;102.07;31.17;;;10.80;99.90;;;;;;5132705;27;20043;-77
2022/10/15 04:39:09;;;;;;;100.38;32.40;;;10.80;99.90;;;;;;5132986;27;20499;-79
2022/10/15 04:41:34;;;;;;;103.95;30.48;;;10.80;99.90;;;;;;5133052;27;20130;-77
2022/10/15 04:44:00;;;;;;;101.35;32.90;;;10.90;99.90;;;;;;5132501;27;20379;-77
2022/10/15 04:46:26;;;;;;;97.68;31.98;;;11.00;99.90;;;;;;5134137;27;20486;-83
2022/10/15 04:48:56;;;;;;;92.35;31.85;;;11.00;99.90;;;;;;5115704;27;20466;-78
2022/10/15 04:51:22;;;;;;;99.78;32.33;;;11.00;99.90;;;;;;5133997;27;20051;-77
2022/10/15 04:53:48;;;;;;;107.10;33.08;;;11.00;99.90;;;;;;5133892;27;20050;-76
2022/10/15 04:56:16;;;;;;;105.38;31.90;;;10.90;99.90;;;;;;5132725;27;20047;-79
2022/10/15 04:58:44;;;;;;;113.45;33.67;;;10.90;99.90;;;;;;5133293;27;20477;-76
2022/10/15 05:01:12;;;;;;;111.78;32.42;;;10.80;99.90;;;;;;5134200;27;20047;-77
2022/10/15 05:03:39;;;;;;;106.45;32.67;;;10.80;99.90;;;;;;5133757;27;20051;-77
2022/10/15 05:06:10;;;;;;;108.45;32.55;;;10.80;99.90;;;;;;5132567;27;20448;-78
2022/10/15 05:08:37;;;;;;;120.03;33.58;;;10.70;99.90;;;;;;5133665;27;20126;-78
2022/10/15 05:11:39;;;;;;;115.03;35.22;;;10.70;99.90;;;;;;5133769;27;20063;-77
2022/10/15 05:14:05;;;;;;;107.95;33.17;;;10.70;99.90;;;;;;5129675;28;20518;-77
2022/10/15 05:16:32;;;;;;;117.47;34.63;;;10.70;99.90;;;;;;5134983;27;20482;-82
2022/10/15 05:19:01;;;;;;;107.47;32.80;;;10.70;99.90;;;;;;5137031;27;20057;-78
2022/10/15 05:21:28;;;;;;;114.07;34.58;;;10.80;99.90;;;;;;5154425;27;20043;-78
2022/10/15 05:23:54;;;;;;;109.43;33.17;;;10.70;99.90;;;;;;5156986;27;20415;-78
2022/10/15 05:26:22;;;;;;;138.90;36.67;;;10.70;99.90;;;;;;5123160;27;20082;-78
2022/10/15 05:28:49;;;;;;;123.13;33.30;;;10.80;99.90;;;;;;5158734;27;20103;-77
2022/10/15 05:31:18;;;;;;;116.25;35.05;;;10.70;99.90;;;;;;5140139;27;20054;-77
2022/10/15 05:33:44;;;;;;;119.15;34.90;;;10.70;99.90;;;;;;5158873;27;20042;-79
2022/10/15 05:36:18;;;;;;;127.17;36.40;;;10.70;99.90;;;;;;5158437;27;20039;-77
2022/10/15 05:38:50;;;;;;;120.07;35.80;;;10.80;99.90;;;;;;5158380;27;20042;-76
2022/10/15 05:41:16;;;;;;;116.50;35.05;;;10.80;99.90;;;;;;5140060;27;20522;-76
2022/10/15 05:43:42;;;;;;;123.80;34.97;;;10.80;99.90;;;;;;5158427;27;20173;-76
2022/10/15 05:46:08;;;;;;;121.88;35.40;;;10.90;99.90;;;;;;5158327;27;20035;-77
2022/10/15 05:48:33;;;;;;;122.38;35.70;;;10.90;99.90;;;;;;5122300;27;20078;-84
2022/10/15 05:51:04;;;;;;;114.72;34.10;;;11.00;99.90;;;;;;5122708;27;20069;-77
2022/10/15 05:53:30;;;;;;;107.68;34.22;;;11.00;99.90;;;;;;5139988;27;20143;-77
2022/10/15 05:55:57;;;;;;;104.80;34.30;;;11.00;99.90;;;;;;5139550;27;20058;-76
2022/10/15 05:58:24;;;;;;;114.25;33.78;;;11.00;99.90;;;;;;5139870;27;20061;-76
2022/10/15 06:00:54;;;;;;;;;;;11.00;99.90;;;;;;5140240;27;20053;-77
2022/10/15 06:03:19;;;;;;;103.25;32.60;;;11.00;99.90;;;;;;5158067;27;19919;-75
2022/10/15 06:05:45;;;;;;;105.53;33.08;;;11.10;99.90;;;;;;5139229;27;20054;-77
2022/10/15 06:08:11;;;;;;;110.10;32.85;;;11.10;99.90;;;;;;5122699;27;20043;-76
2022/10/15 06:10:36;;;;;;;114.00;33.92;;;11.00;99.90;;;;;;5139310;27;20047;-82
2022/10/15 06:13:03;;;;;;;107.60;33.28;;;11.10;99.90;;;;;;5158185;27;20478;-76
2022/10/15 06:15:29;;;;;;;113.05;34.67;;;11.10;99.90;;;;;;5139296;27;20100;-76
2022/10/15 06:17:55;;;;;;;108.20;33.73;;;11.20;99.90;;;;;;5157512;27;20086;-77
2022/10/15 06:20:21;;;;;;;118.45;34.30;;;11.10;99.90;;;;;;5139514;27;20479;-76
2022/10/15 06:22:47;;;;;;;104.47;33.38;;;11.20;99.90;;;;;;5139055;27;20344;-77
2022/10/15 06:25:12;;;;;;;110.43;34.47;;;11.10;99.90;;;;;;5157949;27;20133;-77
2022/10/15 06:27:38;;;;;;;126.70;34.78;;;11.20;99.90;;;;;;5157510;27;20043;-76
2022/10/15 06:30:04;;;;;;;122.95;34.85;;;11.20;99.90;;;;;;5138730;27;20130;-77
2022/10/15 06:32:30;;;;;;;119.43;33.70;;;11.20;99.90;;;;;;5157899;27;20035;-77
2022/10/15 06:34:56;;;;;;;114.03;33.80;;;11.20;99.90;;;;;;5138466;27;20719;-77
2022/10/15 06:37:22;;;;;;;115.85;34.72;;;11.30;99.90;;;;;;5157187;27;20141;-77
2022/10/15 06:39:48;;;;;;;96.57;31.67;;;11.30;99.90;;;;;;5138805;27;20055;-76
2022/10/15 06:42:14;;;;;;;103.07;33.15;;;11.30;99.90;;;;;;5138890;27;20051;-75
2022/10/15 06:44:40;;;;;;;98.85;33.45;;;11.40;99.90;;;;;;5139028;27;20429;-76
2022/10/15 06:47:06;;;;;;;99.78;32.50;;;11.40;99.90;;;;;;5121892;27;20111;-74
2022/10/15 06:49:32;;;;;;;112.28;34.30;;;11.50;99.90;;;;;;5138731;27;20046;-75
2022/10/15 06:51:58;;;;;;;102.07;31.52;;;11.50;99.90;;;;;;5157165;27;20047;-75
2022/10/15 06:54:24;;;;;;;98.65;31.95;;;11.60;99.90;;;;;;5139107;27;20147;-76
2022/10/15 06:56:50;;;;;;;102.68;34.38;;;11.60;99.90;;;;;;5156983;27;20035;-75
2022/10/15 06:59:16;;;;;;;93.10;32.67;;;11.70;99.90;;;;;;5138668;27;20095;-77
2022/10/15 07:01:41;;;;;;;100.75;33.25;;;11.70;99.90;;;;;;5156964;27;20471;-84
2022/10/15 07:04:07;;;;;;;85.93;33.20;;;11.80;99.90;;;;;;5139209;27;20478;-76
2022/10/15 07:06:37;;;;;;;86.13;30.92;;;11.90;99.90;;;;;;5142299;27;20054;-76
2022/10/15 07:09:04;;;;;;;99.15;33.67;;;11.90;99.90;;;;;;5139412;27;20133;-75
2022/10/15 07:11:33;;;;;;;95.75;33.15;;;12.00;99.90;;;;;;5157598;27;20049;-75
2022/10/15 07:13:58;;;;;;;84.43;32.47;;;12.00;99.90;;;;;;5122362;27;20045;-73
2022/10/15 07:16:24;;;;;;;98.68;33.15;;;12.10;99.90;;;;;;5139152;27;20042;-75
2022/10/15 07:18:50;;;;;;;91.10;33.07;;;12.10;99.90;;;;;;5117600;27;20096;-75
2022/10/15 07:21:16;;;;;;;89.38;31.88;;;12.20;99.90;;;;;;5135138;27;20039;-74
2022/10/15 07:23:42;;;;;;;76.57;30.15;;;12.20;99.90;;;;;;5135322;27;20126;-81
2022/10/15 07:26:07;;;;;;;84.82;31.35;;;12.20;99.90;;;;;;5137801;27;20122;-76
2022/10/15 07:28:33;;;;;;;85.53;31.15;;;12.20;99.90;;;;;;5138174;27;20047;-80
2022/10/15 07:31:04;;;;;;;81.20;31.15;;;12.30;99.90;;;;;;5121274;27;20368;-78
2022/10/15 07:33:32;;;;;;;86.75;33.58;;;12.30;99.90;;;;;;5139478;27;20442;-76
2022/10/15 07:35:57;;;;;;;85.85;31.88;;;12.30;99.90;;;;;;5139232;27;20057;-76
2022/10/15 07:38:23;;;;;;;86.85;32.88;;;12.30;99.90;;;;;;5122746;27;20039;-76
2022/10/15 07:40:49;;;;;;;81.60;31.85;;;12.30;99.90;;;;;;5140019;27;20079;-76
2022/10/15 07:43:15;;;;;;;81.28;31.85;;;12.40;99.90;;;;;;5140190;27;20057;-78
2022/10/15 07:45:45;;;;;;;81.88;29.60;;;12.40;99.90;;;;;;5140083;27;20122;-76
2022/10/15 07:48:11;;;;;;;93.10;33.60;;;12.40;99.90;;;;;;5141920;27;20103;-78
2022/10/15 07:50:37;;;;;;;81.07;30.42;;;12.50;99.90;;;;;;5126726;27;20515;-76
2022/10/15 07:53:02;;;;;;;79.60;33.15;;;12.50;99.90;;;;;;5144885;27;20055;-78
2022/10/15 07:55:28;;;;;;;80.18;31.00;;;12.60;99.90;;;;;;5146002;27;20051;-85
2022/10/15 07:57:57;;;;;;;89.32;34.13;;;12.70;99.90;;;;;;5145440;27;20043;-75
2022/10/15 08:00:23;;;;;;;84.25;33.63;;;12.80;99.90;;;;;;5145380;27;20054;-77
2022/10/15 08:02:48;;;;;;;81.55;34.22;;;12.90;99.90;;;;;;5144185;27;20398;-85
2022/10/15 08:05:14;;;;;;;81.03;33.72;;;12.90;99.90;;;;;;5142845;27;20043;-76
2022/10/15 08:07:40;;;;;;;88.72;34.80;;;12.90;99.90;;;;;;5141641;27;20047;-76
2022/10/15 08:10:08;;;;;;;88.70;34.83;;;12.90;99.90;;;;;;5141336;27;20047;-76
2022/10/15 08:12:35;;;;;;;83.07;33.03;;;13.00;99.90;;;;;;5140202;27;20051;-76
2022/10/15 08:15:01;;;;;;;95.10;37.40;;;13.00;99.90;;;;;;5140132;27;20104;-75
2022/10/15 08:17:27;;;;;;;83.60;34.40;;;13.00;99.90;;;;;;5139111;27;20051;-75
2022/10/15 08:19:52;;;;;;;93.63;34.60;;;13.00;99.90;;;;;;5123216;27;20067;-76
2022/10/15 08:22:18;;;;;;;81.10;34.58;;;13.10;99.90;;;;;;5141995;27;20054;-77
2022/10/15 08:24:44;;;;;;;86.95;35.88;;;13.20;99.90;;;;;;5142856;27;20051;-78
2022/10/15 08:27:09;;;;;;;88.63;34.85;;;13.30;99.90;;;;;;5142707;27;20039;-79
2022/10/15 08:29:35;;;;;;;91.10;35.40;;;13.30;99.90;;;;;;5143520;27;20420;-77
2022/10/15 08:32:01;;;;;;;85.47;35.20;;;13.30;99.90;;;;;;5125364;27;20372;-76
2022/10/15 08:34:27;;;;;;;85.22;35.30;;;13.40;99.90;;;;;;5148302;27;20101;-77
2022/10/15 08:36:52;;;;;;;81.57;32.80;;;13.40;99.90;;;;;;5146303;27;20047;-80
2022/10/15 08:39:18;;;;;;;79.43;29.10;;;13.50;99.90;;;;;;5130908;28;20054;-75
2022/10/15 08:41:55;;;;;;;71.65;31.02;;;13.50;99.90;;;;;;5149065;27;20039;-74
2022/10/15 08:44:31;;;;;;;89.95;33.80;;;13.50;99.90;;;;;;5147459;27;20050;-76
2022/10/15 08:47:08;;;;;;;88.20;31.75;;;13.40;99.90;;;;;;5126689;27;20047;-76
2022/10/15 08:49:43;;;;;;;79.63;27.27;;;13.30;99.90;;;;;;5140977;27;20047;-74
2022/10/15 08:52:35;;;;;;;80.72;28.88;;;13.30;99.90;;;;;;5139354;27;20039;-77
2022/10/15 08:55:01;;;;;;;87.88;29.80;;;13.30;99.90;;;;;;5142171;27;20068;-75
2022/10/15 08:57:39;;;;;;;79.27;28.10;;;13.20;99.90;;;;;;5143009;27;20047;-75
2022/10/15 09:00:48;;;;;;;76.78;27.17;;;13.10;99.90;;;;;;5144704;27;20281;-73
2022/10/15 09:03:28;;;;;;;66.00;22.15;;;13.10;99.90;;;;;;5145854;27;20047;-77
2022/10/15 09:06:21;;;;;;;70.47;24.42;;;13.20;99.90;;;;;;5143784;27;20091;-75
2022/10/15 09:08:49;;;;;;;70.45;25.38;;;13.20;99.90;;;;;;5124259;28;20120;-76
2022/10/15 09:11:36;;;;;;;71.13;24.67;;;13.20;99.90;;;;;;5140250;27;20058;-75
2022/10/15 09:14:08;;;;;;;68.07;24.90;;;13.20;99.90;;;;;;5142720;28;20100;-75
2022/10/15 09:16:40;;;;;;;77.00;27.70;;;13.20;99.90;;;;;;5144250;27;20047;-77
2022/10/15 09:19:14;;;;;;;71.35;25.23;;;13.10;99.90;;;;;;5167265;27;20447;-77
2022/10/15 09:21:41;;;;;;;63.70;23.45;;;13.10;99.90;;;;;;5150634;27;20098;-81
2022/10/15 09:24:12;;;;;;;63.67;22.75;;;13.20;99.90;;;;;;5134326;27;20039;-78
2022/10/15 09:26:59;;;;;;;57.13;21.80;;;13.20;99.90;;;;;;5169087;27;20095;-79
2022/10/15 09:29:31;;;;;;;62.35;22.60;;;13.20;99.90;;;;;;5172553;27;20051;-76
2022/10/15 09:32:19;;;;;;;68.85;24.13;;;13.20;99.90;;;;;;5151468;27;20083;-75
2022/10/15 09:35:00;;;;;;;70.90;23.92;;;13.30;99.90;;;;;;5170017;27;20051;-77
2022/10/15 09:37:50;;;;;;;64.63;23.25;;;13.40;99.90;;;;;;5169799;27;20041;-77
2022/10/15 09:40:47;;;;;;;69.93;24.02;;;13.40;99.90;;;;;;5131429;27;20195;-78
2022/10/15 09:43:18;;;;;;;71.20;25.83;;;13.40;99.90;;;;;;5145266;27;20066;-76
2022/10/15 09:45:45;;;;;;;66.45;22.73;;;13.50;99.90;;;;;;5130742;27;20502;-77
2022/10/15 09:48:18;;;;;;;59.97;21.60;;;13.50;99.90;;;;;;5146088;27;20119;-76
2022/10/15 09:50:59;;;;;;;63.83;22.88;;;13.60;99.90;;;;;;5162413;27;20122;-74
2022/10/15 09:53:24;;;;;;;61.40;21.83;;;13.60;99.90;;;;;;5160915;27;20059;-77
2022/10/15 09:56:07;;;;;;;62.72;22.48;;;13.60;99.90;;;;;;5158858;27;20516;-75
2022/10/15 09:58:38;;;;;;;57.00;21.73;;;13.70;99.90;;;;;;5157549;27;20059;-78
2022/10/15 10:01:07;;;;;;;60.13;21.38;;;13.80;99.90;;;;;;5157846;27;20121;-81
2022/10/15 10:03:35;;;;;;;62.53;22.45;;;13.80;99.90;;;;;;5156492;27;20661;-74
2022/10/15 10:06:10;;;;;;;55.75;21.25;;;13.90;99.90;;;;;;5138326;27;20189;-74
2022/10/15 10:08:48;;;;;;;53.70;20.98;;;14.10;99.90;;;;;;5156442;27;20046;-75
2022/10/15 10:11:14;;;;;;;56.42;20.80;;;14.30;99.90;;;;;;5160093;27;20035;-74
2022/10/15 10:13:58;;;;;;;53.45;20.75;;;14.40;99.90;;;;;;5142718;27;20050;-74
2022/10/15 10:16:25;;;;;;;51.45;20.77;;;14.60;99.90;;;;;;5161920;27;20042;-74
2022/10/15 10:19:13;;;;;;;48.00;18.67;;;14.70;99.90;;;;;;5145429;27;20055;-76
2022/10/15 10:21:41;;;;;;;48.83;19.38;;;14.80;99.90;;;;;;5161135;27;20055;-74
2022/10/15 10:24:30;;;;;;;44.67;18.17;;;14.80;99.90;;;;;;5161356;27;20148;-82
2022/10/15 10:27:01;;;;;;;41.30;18.58;;;14.80;99.90;;;;;;5144356;27;20035;-74
2022/10/15 10:29:28;;;;;;;42.05;17.92;;;14.90;99.90;;;;;;5144601;27;20047;-74
2022/10/15 10:31:55;;;;;;;41.28;18.27;;;14.90;99.90;;;;;;5109075;27;20054;-74
2022/10/15 10:34:29;;;;;;;38.83;15.75;;;15.10;99.90;;;;;;5161605;27;20455;-75
2022/10/15 10:36:55;;;;;;;38.60;15.05;;;15.30;99.90;;;;;;5161693;27;20150;-74
2022/10/15 10:39:26;;;;;;;39.72;17.38;;;15.40;99.90;;;;;;5142759;27;20068;-76
2022/10/15 10:42:22;;;;;;;37.20;17.38;;;15.30;99.90;;;;;;5160753;27;20046;-78
2022/10/15 10:44:48;;;;;;;36.28;15.50;;;15.20;99.90;;;;;;5161182;27;20039;-76
2022/10/15 10:47:25;;;;;;;36.88;16.92;;;15.30;99.90;;;;;;5124389;27;20046;-76
2022/10/15 10:49:53;;;;;;;38.67;17.10;;;15.40;99.90;;;;;;5160141;27;20047;-78
2022/10/15 10:52:27;;;;;;;35.90;16.25;;;15.50;99.90;;;;;;5158659;27;20050;-76
2022/10/15 10:55:04;;;;;;;33.30;16.23;;;15.60;99.90;;;;;;5159026;27;20053;-76
2022/10/15 10:57:42;;;;;;;;;;;15.80;99.90;;;;;;5159644;27;20041;-77
2022/10/15 11:00:15;;;;;;;34.47;15.80;;;15.60;99.90;;;;;;5158646;27;19972;-77
2022/10/15 11:02:42;;;;;;;33.13;15.55;;;15.60;99.90;;;;;;5159565;27;20054;-76
2022/10/15 11:05:09;;;;;;;;;;;15.50;99.90;;;;;;5140921;27;20498;-75
2022/10/15 11:08:07;;;;;;;;;;;15.40;99.90;;;;;;5159895;27;19919;-75
2022/10/15 11:11:11;;;;;;;36.25;15.93;;;15.40;99.90;;;;;;5101809;27;19919;-75
2022/10/15 11:13:40;;;;;;;35.78;16.50;;;15.40;99.90;;;;;;5141222;27;20062;-72
2022/10/15 11:16:58;;;;;;;35.30;15.75;;;15.30;99.90;;;;;;5140288;27;20074;-75
2022/10/15 11:19:38;;;;;;;35.40;15.77;;;15.30;99.90;;;;;;5102081;27;20054;-75
2022/10/15 11:22:40;;;;;;;39.58;16.95;;;15.20;99.90;;;;;;5123981;27;20074;-76
2022/10/15 11:25:11;;;;;;;37.28;16.95;;;15.20;99.90;;;;;;5123972;27;20038;-75
2022/10/15 11:27:57;;;;;;;41.65;17.23;;;15.30;99.90;;;;;;5158467;27;20118;-76
2022/10/15 11:30:42;;;;;;;38.38;16.60;;;15.20;99.90;;;;;;5140073;27;20054;-75
2022/10/15 11:33:55;;;;;;;37.88;16.35;;;15.20;99.90;;;;;;5140652;27;20054;-76
2022/10/15 11:36:54;;;;;;;38.47;16.20;;;15.20;99.90;;;;;;5037559;28;20048;-77
2022/10/15 11:39:23;;;;;;;38.33;16.63;;;15.30;99.90;;;;;;5037248;28;20508;-77
2022/10/15 11:42:20;;;;;;;38.55;17.17;;;15.40;99.90;;;;;;5098116;27;20050;-77
2022/10/15 11:45:03;;;;;;;34.85;16.65;;;15.50;99.90;;;;;;5121632;27;20085;-76
2022/10/15 11:47:52;;;;;;;35.05;15.68;;;15.60;99.90;;;;;;5121756;27;20479;-78
2022/10/15 11:50:46;;;;;;;34.30;16.80;;;15.70;99.90;;;;;;5157231;27;20039;-81
2022/10/15 11:53:30;;;;;;;33.85;15.95;;;15.70;99.90;;;;;;5156860;27;20100;-77
2022/10/15 11:56:17;;;;;;;34.47;14.63;;;15.80;99.90;;;;;;5156139;27;20129;-77
2022/10/15 11:58:59;;;;;;;32.30;15.65;;;15.70;99.90;;;;;;5156402;27;20098;-77
2022/10/15 12:01:37;;;;;;;36.08;15.85;;;15.70;99.90;;;;;;5156741;27;20049;-77
2022/10/15 12:04:12;;;;;;;30.38;15.13;;;15.80;99.90;;;;;;5156624;27;20398;-78
2022/10/15 12:06:43;;;;;;;31.50;14.75;;;15.80;99.90;;;;;;5138144;27;20576;-79
2022/10/15 12:09:19;;;;;;;35.33;14.90;;;15.70;99.90;;;;;;5137605;27;20099;-81
2022/10/15 12:12:01;;;;;;;37.72;16.38;;;15.70;99.90;;;;;;5119904;27;20082;-79
2022/10/15 12:14:41;;;;;;;35.58;16.70;;;15.60;99.90;;;;;;5120613;27;20058;-80
2022/10/15 12:17:39;;;;;;;37.72;15.63;;;15.60;99.90;;;;;;5155688;27;20122;-77
2022/10/15 12:20:15;;;;;;;36.03;16.60;;;15.60;99.90;;;;;;5138135;27;20047;-78
2022/10/15 12:22:46;;;;;;;34.88;14.95;;;15.70;99.90;;;;;;5155209;27;20454;-78
2022/10/15 12:25:34;;;;;;;33.55;15.88;;;15.80;99.90;;;;;;5155427;27;20216;-81
2022/10/15 12:28:11;;;;;;;36.42;16.75;;;15.70;99.90;;;;;;5119984;27;20141;-78
2022/10/15 12:30:41;;;;;;;37.38;16.60;;;15.60;99.90;;;;;;5137445;27;20153;-80
2022/10/15 12:33:28;;;;;;;34.25;15.15;;;15.60;99.90;;;;;;5119325;27;20050;-78
2022/10/15 12:36:00;;;;;;;33.30;15.05;;;15.60;99.90;;;;;;5136613;27;20038;-77
2022/10/15 12:38:30;;;;;;;33.38;16.27;;;15.60;99.90;;;;;;5120338;27;20110;-78
2022/10/15 12:41:04;;;;;;;34.58;15.00;;;15.50;99.90;;;;;;5136605;27;20078;-82
2022/10/15 12:43:33;;;;;;;28.67;14.20;;;15.50;99.90;;;;;;5137661;27;20047;-78
2022/10/15 12:46:02;;;;;;;34.67;15.13;;;15.50;99.90;;;;;;5136546;27;20043;-79
2022/10/15 12:48:43;;;;;;;29.05;14.10;;;15.40;99.90;;;;;;5154835;27;20097;-77